sensor_id;sensor_type;location;lat;lon;timestamp;pressure;altitude;pressure_sealevel;temperature;humidity
30463;BME280;17256;43.618;25.336;2023-01-23T00:01:57;101259.78;;;6.69;100.00
30463;BME280;17256;43.618;25.336;2023-01-23T00:04:29;101476.16;;;8.03;100.00
30463;BME280;17256;43.618;25.336;2023-01-23T00:07:16;101429.75;;;7.68;100.00
30463;BME280;17256;43.618;25.336;2023-01-23T00:09:53;101568.00;;;8.58;100.00
30463;BME280;17256;43.618;25.336;2023-01-23T00:12:23;101349.53;;;7.25;100.00
30463;BME280;17256;43.618;25.336;2023-01-23T00:15:19;101441.78;;;7.75;100.00
30463;BME280;17256;43.618;25.336;2023-01-23T00:18:13;101439.28;;;7.64;100.00
30463;BME280;17256;43.618;25.336;2023-01-23T00:20:52;101548.81;;;8.32;100.00
30463;BME280;17256;43.618;25.336;2023-01-23T00:23:43;101324.53;;;6.76;100.00
30463;BME280;17256;43.618;25.336;2023-01-23T00:26:59;101431.22;;;7.36;100.00
30463;BME280;17256;43.618;25.336;2023-01-23T00:30:06;101659.88;;;8.78;100.00
30463;BME280;17256;43.618;25.336;2023-01-23T00:33:19;101663.78;;;8.76;100.00
30463;BME280;17256;43.618;25.336;2023-01-23T00:36:35;101466.19;;;7.51;100.00
30463;BME280;17256;43.618;25.336;2023-01-23T00:39:58;101270.75;;;6.33;100.00
30463;BME280;17256;43.618;25.336;2023-01-23T00:43:31;101703.19;;;8.57;100.00
30463;BME280;17256;43.618;25.336;2023-01-23T00:46:13;101331.53;;;6.43;100.00
30463;BME280;17256;43.618;25.336;2023-01-23T00:49:14;101482.22;;;7.28;100.00
30463;BME280;17256;43.618;25.336;2023-01-23T00:52:09;101326.63;;;6.29;100.00
30463;BME280;17256;43.618;25.336;2023-01-23T00:55:18;101489.09;;;7.32;100.00
30463;BME280;17256;43.618;25.336;2023-01-23T00:58:58;101522.59;;;7.52;100.00
30463;BME280;17256;43.618;25.336;2023-01-23T01:02:46;101694.84;;;8.41;100.00
30463;BME280;17256;43.618;25.336;2023-01-23T01:06:09;101695.47;;;8.35;100.00
30463;BME280;17256;43.618;25.336;2023-01-23T01:09:34;101652.19;;;7.94;100.00
30463;BME280;17256;43.618;25.336;2023-01-23T01:12:37;101592.00;;;7.59;100.00
30463;BME280;17256;43.618;25.336;2023-01-23T01:15:55;101692.44;;;8.20;100.00
30463;BME280;17256;43.618;25.336;2023-01-23T01:18:37;101586.53;;;7.41;100.00
30463;BME280;17256;43.618;25.336;2023-01-23T01:21:52;101449.03;;;6.69;100.00
30463;BME280;17256;43.618;25.336;2023-01-23T01:24:31;101338.88;;;5.88;100.00
30463;BME280;17256;43.618;25.336;2023-01-23T01:27:45;101694.38;;;8.10;100.00
30463;BME280;17256;43.618;25.336;2023-01-23T01:30:43;101357.13;;;5.97;100.00
30463;BME280;17256;43.618;25.336;2023-01-23T01:33:42;101337.25;;;6.05;100.00
30463;BME280;17256;43.618;25.336;2023-01-23T01:40:31;101692.00;;;8.15;100.00
30463;BME280;17256;43.618;25.336;2023-01-23T01:46:59;101476.09;;;6.81;100.00
30463;BME280;17256;43.618;25.336;2023-01-23T01:50:17;101398.63;;;6.46;100.00
30463;BME280;17256;43.618;25.336;2023-01-23T01:53:22;101349.72;;;6.07;100.00
30463;BME280;17256;43.618;25.336;2023-01-23T01:56:41;101315.25;;;5.79;100.00
30463;BME280;17256;43.618;25.336;2023-01-23T01:59:17;101711.09;;;8.07;100.00
30463;BME280;17256;43.618;25.336;2023-01-23T02:02:44;101472.16;;;6.65;100.00
30463;BME280;17256;43.618;25.336;2023-01-23T02:05:45;101329.19;;;5.76;100.00
30463;BME280;17256;43.618;25.336;2023-01-23T02:09:23;101733.38;;;8.12;100.00
30463;BME280;17256;43.618;25.336;2023-01-23T02:12:36;101387.69;;;5.91;100.00
30463;BME280;17256;43.618;25.336;2023-01-23T02:15:52;101404.91;;;5.82;100.00
30463;BME280;17256;43.618;25.336;2023-01-23T02:18:53;101609.69;;;6.92;100.00
30463;BME280;17256;43.618;25.336;2023-01-23T02:22:19;101465.03;;;6.00;100.00
30463;BME280;17256;43.618;25.336;2023-01-23T02:26:03;101732.84;;;7.35;100.00
30463;BME280;17256;43.618;25.336;2023-01-23T02:29:56;101726.34;;;7.09;100.00
30463;BME280;17256;43.618;25.336;2023-01-23T02:52:55;101732.19;;;6.67;100.00
30463;BME280;17256;43.618;25.336;2023-01-23T03:00:53;101734.53;;;6.53;100.00
30463;BME280;17256;43.618;25.336;2023-01-23T03:05:01;101423.22;;;4.56;100.00
30463;BME280;17256;43.618;25.336;2023-01-23T03:09:05;101407.59;;;4.39;100.00
30463;BME280;17256;43.618;25.336;2023-01-23T03:12:50;101472.25;;;4.75;100.00
30463;BME280;17256;43.618;25.336;2023-01-23T03:16:44;101737.25;;;6.43;100.00
30463;BME280;17256;43.618;25.336;2023-01-23T03:21:24;101744.16;;;6.37;100.00
30463;BME280;17256;43.618;25.336;2023-01-23T03:36:36;101757.09;;;6.35;100.00
30463;BME280;17256;43.618;25.336;2023-01-23T03:40:37;101633.03;;;5.62;100.00
30463;BME280;17256;43.618;25.336;2023-01-23T03:47:51;101552.81;;;5.16;100.00
30463;BME280;17256;43.618;25.336;2023-01-23T03:55:46;101770.28;;;6.59;100.00
30463;BME280;17256;43.618;25.336;2023-01-23T03:59:26;101568.75;;;5.31;100.00
30463;BME280;17256;43.618;25.336;2023-01-23T04:03:18;101784.06;;;6.67;100.00
30463;BME280;17256;43.618;25.336;2023-01-23T04:14:53;101467.53;;;4.87;100.00
30463;BME280;17256;43.618;25.336;2023-01-23T04:19:03;101788.78;;;6.85;100.00
30463;BME280;17256;43.618;25.336;2023-01-23T04:27:09;101467.53;;;4.87;100.00
30463;BME280;17256;43.618;25.336;2023-01-23T04:31:03;101467.56;;;4.97;100.00
30463;BME280;17256;43.618;25.336;2023-01-23T04:33:56;101615.53;;;5.94;100.00
30463;BME280;17256;43.618;25.336;2023-01-23T04:37:16;101584.84;;;5.72;100.00
30463;BME280;17256;43.618;25.336;2023-01-23T04:44:48;101787.03;;;7.03;100.00
30463;BME280;17256;43.618;25.336;2023-01-23T04:49:04;101461.81;;;5.00;100.00
30463;BME280;17256;43.618;25.336;2023-01-23T04:52:47;101574.94;;;5.81;100.00
30463;BME280;17256;43.618;25.336;2023-01-23T05:08:51;101473.72;;;4.39;100.00
30463;BME280;17256;43.618;25.336;2023-01-23T05:16:45;101851.59;;;6.36;100.00
30463;BME280;17256;43.618;25.336;2023-01-23T05:20:18;101669.25;;;5.24;100.00
30463;BME280;17256;43.618;25.336;2023-01-23T06:13:17;101915.69;;;5.81;100.00
30463;BME280;17256;43.618;25.336;2023-01-23T06:17:12;101927.19;;;5.84;100.00
30463;BME280;17256;43.618;25.336;2023-01-23T06:21:12;101930.78;;;5.85;100.00
30463;BME280;17256;43.618;25.336;2023-01-23T06:33:21;101951.56;;;5.76;100.00
30463;BME280;17256;43.618;25.336;2023-01-23T06:45:23;101946.69;;;5.80;100.00
30463;BME280;17256;43.618;25.336;2023-01-23T07:47:45;101718.84;;;4.25;100.00
30463;BME280;17256;43.618;25.336;2023-01-23T08:03:21;102024.44;;;5.74;100.00
30463;BME280;17256;43.618;25.336;2023-01-23T08:11:06;101790.81;;;4.42;100.00
30463;BME280;17256;43.618;25.336;2023-01-23T08:15:20;101668.66;;;3.65;100.00
30463;BME280;17256;43.618;25.336;2023-01-23T08:19:40;101671.31;;;3.55;100.00
30463;BME280;17256;43.618;25.336;2023-01-23T08:23:44;101949.09;;;5.11;100.00
30463;BME280;17256;43.618;25.336;2023-01-23T08:27:58;101672.91;;;3.58;100.00
30463;BME280;17256;43.618;25.336;2023-01-23T08:32:06;101875.75;;;4.77;100.00
30463;BME280;17256;43.618;25.336;2023-01-23T08:44:07;102044.16;;;5.67;100.00
30463;BME280;17256;43.618;25.336;2023-01-23T08:48:03;101676.56;;;3.25;100.00
30463;BME280;17256;43.618;25.336;2023-01-23T08:56:21;102045.97;;;5.56;100.00
30463;BME280;17256;43.618;25.336;2023-01-23T09:00:28;101694.41;;;3.38;100.00
30463;BME280;17256;43.618;25.336;2023-01-23T09:04:37;101661.75;;;3.18;100.00
30463;BME280;17256;43.618;25.336;2023-01-23T09:08:04;101723.53;;;3.59;100.00
30463;BME280;17256;43.618;25.336;2023-01-23T09:11:43;102031.91;;;5.40;100.00
30463;BME280;17256;43.618;25.336;2023-01-23T09:14:33;101882.03;;;4.57;100.00
30463;BME280;17256;43.618;25.336;2023-01-23T09:18:18;101669.63;;;3.32;100.00
30463;BME280;17256;43.618;25.336;2023-01-23T09:22:00;101814.38;;;4.20;100.00
30463;BME280;17256;43.618;25.336;2023-01-23T09:30:02;101651.13;;;3.26;100.00
30463;BME280;17256;43.618;25.336;2023-01-23T09:33:47;101660.75;;;3.30;100.00
30463;BME280;17256;43.618;25.336;2023-01-23T09:37:45;102023.16;;;5.57;100.00
30463;BME280;17256;43.618;25.336;2023-01-23T09:42:04;101675.53;;;3.48;100.00
30463;BME280;17256;43.618;25.336;2023-01-23T09:46:20;101675.13;;;3.53;100.00
30463;BME280;17256;43.618;25.336;2023-01-23T09:54:06;101667.88;;;3.42;100.00
30463;BME280;17256;43.618;25.336;2023-01-23T09:58:23;101711.88;;;3.68;100.00
30463;BME280;17256;43.618;25.336;2023-01-23T10:06:05;102028.00;;;5.54;100.00
30463;BME280;17256;43.618;25.336;2023-01-23T10:25:41;102015.16;;;5.66;100.00
30463;BME280;17256;43.618;25.336;2023-01-23T10:30:06;101643.28;;;3.44;100.00
30463;BME280;17256;43.618;25.336;2023-01-23T10:34:19;101640.81;;;3.52;100.00
30463;BME280;17256;43.618;25.336;2023-01-23T10:42:08;101999.53;;;5.68;100.00
30463;BME280;17256;43.618;25.336;2023-01-23T10:45:41;101768.72;;;4.35;100.00
30463;BME280;17256;43.618;25.336;2023-01-23T10:50:15;101640.22;;;3.48;100.00
30463;BME280;17256;43.618;25.336;2023-01-23T10:58:44;101988.28;;;5.72;100.00
30463;BME280;17256;43.618;25.336;2023-01-23T11:05:40;101999.81;;;5.85;100.00
30463;BME280;17256;43.618;25.336;2023-01-23T11:13:27;101713.50;;;4.03;100.00
30463;BME280;17256;43.618;25.336;2023-01-23T11:17:42;101640.00;;;3.72;100.00
30463;BME280;17256;43.618;25.336;2023-01-23T11:25:16;101736.94;;;4.36;100.00
30463;BME280;17256;43.618;25.336;2023-01-23T11:29:23;101735.03;;;4.26;100.00
30463;BME280;17256;43.618;25.336;2023-01-23T11:33:12;101735.50;;;4.31;100.00
30463;BME280;17256;43.618;25.336;2023-01-23T11:40:34;101990.50;;;5.67;100.00
30463;BME280;17256;43.618;25.336;2023-01-23T11:44:39;101619.59;;;3.46;100.00
30463;BME280;17256;43.618;25.336;2023-01-23T11:48:47;101638.50;;;3.36;100.00
30463;BME280;17256;43.618;25.336;2023-01-23T11:56:48;101986.84;;;5.36;100.00
30463;BME280;17256;43.618;25.336;2023-01-23T16:52:20;102213.66;;;2.94;100.00
30463;BME280;17256;43.618;25.336;2023-01-23T16:55:35;101868.28;;;0.84;100.00
30463;BME280;17256;43.618;25.336;2023-01-23T16:58:19;101865.75;;;0.68;100.00
30463;BME280;17256;43.618;25.336;2023-01-23T17:01:07;102086.78;;;1.98;100.00
30463;BME280;17256;43.618;25.336;2023-01-23T17:13:35;102065.00;;;1.87;100.00
30463;BME280;17256;43.618;25.336;2023-01-23T17:16:03;102177.78;;;2.53;100.00
30463;BME280;17256;43.618;25.336;2023-01-23T17:18:35;102236.25;;;2.82;100.00
30463;BME280;17256;43.618;25.336;2023-01-23T17:21:03;102080.28;;;1.88;100.00
30463;BME280;17256;43.618;25.336;2023-01-23T17:23:30;101978.84;;;1.28;100.00
30463;BME280;17256;43.618;25.336;2023-01-23T17:25:56;102243.72;;;2.91;100.00
30463;BME280;17256;43.618;25.336;2023-01-23T17:28:22;102165.19;;;2.39;100.00
30463;BME280;17256;43.618;25.336;2023-01-23T17:30:49;102237.25;;;2.81;100.00
30463;BME280;17256;43.618;25.336;2023-01-23T17:33:17;102252.41;;;2.71;100.00
30463;BME280;17256;43.618;25.336;2023-01-23T17:35:45;102039.16;;;1.43;100.00
30463;BME280;17256;43.618;25.336;2023-01-23T17:38:28;102269.47;;;2.73;100.00
30463;BME280;17256;43.618;25.336;2023-01-23T17:41:13;102036.13;;;1.35;100.00
30463;BME280;17256;43.618;25.336;2023-01-23T17:43:42;102065.16;;;1.45;100.00
30463;BME280;17256;43.618;25.336;2023-01-23T17:48:45;102215.94;;;2.37;100.00
30463;BME280;17256;43.618;25.336;2023-01-23T17:51:16;102052.69;;;1.30;100.00
30463;BME280;17256;43.618;25.336;2023-01-23T17:53:43;102037.38;;;1.16;100.00
30463;BME280;17256;43.618;25.336;2023-01-23T17:56:10;102155.28;;;1.87;100.00
30463;BME280;17256;43.618;25.336;2023-01-23T17:58:36;101953.84;;;0.58;100.00
30463;BME280;17256;43.618;25.336;2023-01-23T18:01:04;102104.34;;;1.40;100.00
30463;BME280;17256;43.618;25.336;2023-01-23T18:04:29;102069.25;;;1.26;100.00
30463;BME280;17256;43.618;25.336;2023-01-23T18:06:55;102066.44;;;1.27;100.00
30463;BME280;17256;43.618;25.336;2023-01-23T18:09:20;102050.25;;;1.13;100.00
30463;BME280;17256;43.618;25.336;2023-01-23T18:11:46;102223.28;;;2.22;100.00
30463;BME280;17256;43.618;25.336;2023-01-23T18:17:14;102273.25;;;2.58;100.00
30463;BME280;17256;43.618;25.336;2023-01-23T18:19:45;102290.06;;;2.50;100.00
30463;BME280;17256;43.618;25.336;2023-01-23T18:22:23;102261.09;;;2.51;100.00
30463;BME280;17256;43.618;25.336;2023-01-23T18:24:49;101892.16;;;0.38;100.00
30463;BME280;17256;43.618;25.336;2023-01-23T18:27:26;101985.88;;;0.91;100.00
30463;BME280;17256;43.618;25.336;2023-01-23T18:33:06;102275.31;;;2.54;100.00
30463;BME280;17256;43.618;25.336;2023-01-23T18:38:53;102272.50;;;2.56;100.00
30463;BME280;17256;43.618;25.336;2023-01-23T18:41:28;102268.06;;;2.55;100.00
30463;BME280;17256;43.618;25.336;2023-01-23T18:44:20;102129.97;;;1.61;100.00
30463;BME280;17256;43.618;25.336;2023-01-23T18:46:49;101916.50;;;0.23;100.00
30463;BME280;17256;43.618;25.336;2023-01-23T18:49:17;102154.13;;;1.64;100.00
30463;BME280;17256;43.618;25.336;2023-01-23T18:52:19;102040.25;;;1.01;100.00
30463;BME280;17256;43.618;25.336;2023-01-23T18:58:21;101941.34;;;0.43;100.00
30463;BME280;17256;43.618;25.336;2023-01-23T19:04:29;101891.94;;;0.14;100.00
30463;BME280;17256;43.618;25.336;2023-01-23T19:07:23;102074.06;;;1.20;100.00
30463;BME280;17256;43.618;25.336;2023-01-23T19:10:46;102309.72;;;2.54;100.00
30463;BME280;17256;43.618;25.336;2023-01-23T19:17:13;101978.84;;;0.61;100.00
30463;BME280;17256;43.618;25.336;2023-01-23T19:20:28;102066.38;;;1.14;100.00
30463;BME280;17256;43.618;25.336;2023-01-23T19:26:26;102315.78;;;2.57;100.00
30463;BME280;17256;43.618;25.336;2023-01-23T19:29:00;101953.13;;;0.42;100.00
30463;BME280;17256;43.618;25.336;2023-01-23T19:31:58;101924.88;;;0.33;100.00
30463;BME280;17256;43.618;25.336;2023-01-23T19:35:32;102111.28;;;1.44;100.00
30463;BME280;17256;43.618;25.336;2023-01-23T19:38:16;102032.38;;;0.83;100.00
30463;BME280;17256;43.618;25.336;2023-01-23T19:41:00;102313.72;;;2.61;100.00
30463;BME280;17256;43.618;25.336;2023-01-23T19:43:58;102315.78;;;2.57;100.00
30463;BME280;17256;43.618;25.336;2023-01-23T19:47:04;102089.66;;;1.17;100.00
30463;BME280;17256;43.618;25.336;2023-01-23T19:49:37;101950.38;;;0.29;100.00
30463;BME280;17256;43.618;25.336;2023-01-23T19:52:22;102214.47;;;1.93;100.00
30463;BME280;17256;43.618;25.336;2023-01-23T19:55:37;102331.19;;;2.57;100.00
30463;BME280;17256;43.618;25.336;2023-01-23T20:02:02;102218.25;;;1.91;100.00
30463;BME280;17256;43.618;25.336;2023-01-23T20:04:33;101975.50;;;0.44;100.00
30463;BME280;17256;43.618;25.336;2023-01-23T20:07:22;102080.66;;;1.16;100.00
30463;BME280;17256;43.618;25.336;2023-01-23T20:10:03;102158.78;;;1.62;100.00
30463;BME280;17256;43.618;25.336;2023-01-23T20:12:28;102156.50;;;1.56;100.00
30463;BME280;17256;43.618;25.336;2023-01-23T20:14:57;101982.56;;;0.46;100.00
30463;BME280;17256;43.618;25.336;2023-01-23T20:17:23;102083.44;;;1.02;100.00
30463;BME280;17256;43.618;25.336;2023-01-23T20:19:48;102209.34;;;1.89;100.00
30463;BME280;17256;43.618;25.336;2023-01-23T20:22:19;102263.84;;;2.76;100.00
30463;BME280;17256;43.618;25.336;2023-01-23T20:31:18;102213.69;;;1.91;100.00
30463;BME280;17256;43.618;25.336;2023-01-23T21:43:02;102420.38;;;2.07;100.00
30463;BME280;17256;43.618;25.336;2023-01-23T21:46:29;102411.69;;;2.02;100.00
30463;BME280;17256;43.618;25.336;2023-01-23T21:52:42;102105.28;;;0.29;100.00
30463;BME280;17256;43.618;25.336;2023-01-23T21:55:16;102072.47;;;0.07;100.00
30463;BME280;17256;43.618;25.336;2023-01-23T21:58:36;102398.22;;;2.01;100.00
30463;BME280;17256;43.618;25.336;2023-01-23T22:01:17;102026.44;;;-0.20;100.00
30463;BME280;17256;43.618;25.336;2023-01-23T22:04:34;102314.63;;;1.39;100.00
30463;BME280;17256;43.618;25.336;2023-01-23T22:07:52;102121.84;;;0.23;100.00
30463;BME280;17256;43.618;25.336;2023-01-23T22:10:33;102032.19;;;-0.26;100.00
30463;BME280;17256;43.618;25.336;2023-01-23T22:13:36;102407.50;;;1.97;100.00
30463;BME280;17256;43.618;25.336;2023-01-23T22:16:26;102423.66;;;1.98;100.00
30463;BME280;17256;43.618;25.336;2023-01-23T22:18:59;102023.53;;;-0.31;100.00
30463;BME280;17256;43.618;25.336;2023-01-23T22:21:53;102312.03;;;1.38;100.00
30463;BME280;17256;43.618;25.336;2023-01-23T22:27:49;102178.91;;;0.47;100.00
30463;BME280;17256;43.618;25.336;2023-01-23T22:33:57;102153.91;;;0.44;100.00
30463;BME280;17256;43.618;25.336;2023-01-23T22:36:28;102164.81;;;0.42;100.00
30463;BME280;17256;43.618;25.336;2023-01-23T22:39:08;102072.53;;;-0.23;100.00
30463;BME280;17256;43.618;25.336;2023-01-23T22:42:26;102425.81;;;1.93;100.00
30463;BME280;17256;43.618;25.336;2023-01-23T22:45:25;102313.59;;;1.28;100.00
30463;BME280;17256;43.618;25.336;2023-01-23T22:48:12;102275.25;;;1.07;100.00
30463;BME280;17256;43.618;25.336;2023-01-23T22:51:16;102257.94;;;0.95;100.00
30463;BME280;17256;43.618;25.336;2023-01-23T22:54:07;102124.56;;;0.09;100.00
30463;BME280;17256;43.618;25.336;2023-01-23T22:56:51;102283.94;;;1.12;100.00
30463;BME280;17256;43.618;25.336;2023-01-23T22:59:31;102060.16;;;-0.27;100.00
30463;BME280;17256;43.618;25.336;2023-01-23T23:06:02;102144.47;;;0.51;100.00
30463;BME280;17256;43.618;25.336;2023-01-23T23:12:41;102159.31;;;0.44;100.00
30463;BME280;17256;43.618;25.336;2023-01-23T23:15:24;102110.66;;;0.15;100.00
30463;BME280;17256;43.618;25.336;2023-01-23T23:18:10;102407.03;;;2.04;100.00
30463;BME280;17256;43.618;25.336;2023-01-23T23:24:43;102174.50;;;0.75;100.00
30463;BME280;17256;43.618;25.336;2023-01-23T23:27:20;101977.63;;;-0.45;100.00
30463;BME280;17256;43.618;25.336;2023-01-23T23:30:07;102029.13;;;-0.20;100.00
30463;BME280;17256;43.618;25.336;2023-01-23T23:32:38;102117.13;;;0.41;100.00
30463;BME280;17256;43.618;25.336;2023-01-23T23:35:23;102218.13;;;0.97;100.00
30463;BME280;17256;43.618;25.336;2023-01-23T23:37:54;102404.13;;;2.07;100.00
30463;BME280;17256;43.618;25.336;2023-01-23T23:40:27;102160.00;;;0.61;100.00
30463;BME280;17256;43.618;25.336;2023-01-23T23:43:32;102405.84;;;2.08;100.00
30463;BME280;17256;43.618;25.336;2023-01-23T23:46:36;102404.97;;;2.08;100.00
30463;BME280;17256;43.618;25.336;2023-01-23T23:49:15;102078.34;;;0.14;100.00
30463;BME280;17256;43.618;25.336;2023-01-23T23:51:46;102311.25;;;1.50;100.00
30463;BME280;17256;43.618;25.336;2023-01-23T23:54:48;102389.34;;;1.99;100.00
30463;BME280;17256;43.618;25.336;2023-01-23T23:57:28;102315.41;;;1.41;100.00
